»·PEaware :: N707CP KOTH-KOLM

N707CP :: KOTH-KOLM

FLIGHT INFORMATION

Flight Status: Arrived
Operator: Privately registered:
United States
More flights under this callsign
Pilot: Chase W. (8260)
Aircraft: MITSUBISHI MU-2 MARQUISE
(MU2)
More flights by this aircraft type
Origin: KOTH North Bend Mun
United States
Destination: KOLM Olympia
United States
More flights between these airports :: More routes between these airports
Route: +OTH6 RARES V287 UBG V165 CETRA
File this flight plan on PilotEdge
Remarks:
Altitude:
(Current/Filed)
19,000ft
Speed:
(Current/Filed)
250kts
Departed: 29-Apr-18 12:45 PM
Arrived: 29-Apr-18 01:48 PM
Distance/Time
Traveled:
221nm/1:03
Distance/Time
To Go:
Arrived

Flight Plot

Page will automatically refresh every two minutes.

Flight plan parsing failed; only flown route is shown


Map Options




Map Legend


Flown Route
Filed Route
Departure Airport
Arrival Airport
Navaid (VOR, NDB)
Fix

Horizontal Profiles

Position Reports

Time Latitude Longitude Heading Altitude Ground
Speed
29-Apr-18 12:28 43.415779 -124.245705 150 21ft 0kts
29-Apr-18 12:29 43.415778 -124.245705 150 21ft 0kts
29-Apr-18 12:30 43.415778 -124.245705 150 21ft 0kts
29-Apr-18 12:31 43.415778 -124.245705 150 21ft 0kts
29-Apr-18 12:32 43.415778 -124.245705 150 21ft 0kts
29-Apr-18 12:33 43.415778 -124.245705 150 21ft 0kts
29-Apr-18 12:34 43.415778 -124.245705 150 21ft 0kts
29-Apr-18 12:35 43.415778 -124.245705 150 21ft 0kts
29-Apr-18 12:36 43.415778 -124.245705 150 21ft 0kts
29-Apr-18 12:37 43.415778 -124.245705 150 21ft 0kts
29-Apr-18 12:38 43.415677 -124.245603 127 21ft 8kts
29-Apr-18 12:39 43.416001 -124.245318 18 21ft 0kts
29-Apr-18 12:40 43.414832 -124.243660 149 21ft 19kts
29-Apr-18 12:41 43.411522 -124.241009 150 21ft 10kts
29-Apr-18 12:42 43.409127 -124.239076 143 21ft 7kts
29-Apr-18 12:43 43.409210 -124.238014 55 21ft 7kts
29-Apr-18 12:44 43.433068 -124.259060 308 502ft 185kts
29-Apr-18 12:45 43.417879 -124.323430 237 2537ft 200kts
29-Apr-18 12:46 43.435684 -124.366165 27 5152ft 188kts
29-Apr-18 12:47 43.438916 -124.305783 103 7237ft 200kts
29-Apr-18 12:48 43.427768 -124.240444 102 8010ft 251kts
29-Apr-18 12:49 43.426015 -124.174330 55 7995ft 277kts
29-Apr-18 12:50 43.467090 -124.139816 24 7994ft 263kts
29-Apr-18 12:51 43.508581 -124.113956 22 7996ft 254kts
29-Apr-18 12:52 43.552526 -124.087275 22 8491ft 257kts
29-Apr-18 12:53 43.604545 -124.055951 21 10170ft 261kts
29-Apr-18 12:54 43.660336 -124.022632 21 11743ft 269kts
29-Apr-18 12:55 43.718196 -123.987987 21 13284ft 276kts
29-Apr-18 12:56 43.780492 -123.950615 20 14911ft 280kts
29-Apr-18 12:57 43.843057 -123.913003 19 16524ft 282kts
29-Apr-18 12:58 43.909476 -123.872987 18 18224ft 284kts
29-Apr-18 12:59 43.975568 -123.833186 18 19193ft 304kts
29-Apr-18 13:00 44.042369 -123.793027 18 19182ft 319kts
29-Apr-18 13:01 44.110390 -123.751927 18 19172ft 324kts
29-Apr-18 13:02 44.178473 -123.710566 19 19163ft 326kts
29-Apr-18 13:03 44.246117 -123.669316 19 19153ft 327kts
29-Apr-18 13:04 44.313079 -123.628361 19 19143ft 327kts
29-Apr-18 13:05 44.381484 -123.586419 19 19135ft 327kts
29-Apr-18 13:06 44.449951 -123.544322 19 19135ft 327kts
29-Apr-18 13:07 44.513386 -123.505286 18 19135ft 327kts
29-Apr-18 13:08 44.581857 -123.463106 18 19135ft 327kts
29-Apr-18 13:09 44.650782 -123.420485 19 19135ft 327kts
29-Apr-18 13:10 44.717006 -123.379123 19 19135ft 327kts
29-Apr-18 13:11 44.782287 -123.338482 19 19127ft 325kts
29-Apr-18 13:12 44.850695 -123.295737 19 19123ft 324kts
29-Apr-18 13:13 44.919876 -123.252424 19 19115ft 323kts
29-Apr-18 13:14 44.991203 -123.207686 19 19113ft 323kts
29-Apr-18 13:15 45.060875 -123.163905 20 19115ft 320kts
29-Apr-18 13:16 45.118296 -123.127705 20 19124ft 317kts
29-Apr-18 13:17 45.173120 -123.092976 24 18995ft 325kts
29-Apr-18 13:18 45.248248 -123.045318 24 18986ft 327kts
29-Apr-18 13:19 45.323121 -122.997752 24 18987ft 327kts
29-Apr-18 13:20 45.393560 -122.983629 355 18976ft 327kts
29-Apr-18 13:21 45.480283 -122.994311 355 18985ft 327kts
29-Apr-18 13:22 45.568757 -123.005359 355 18987ft 327kts
29-Apr-18 13:23 45.657783 -123.016501 355 18987ft 327kts
29-Apr-18 13:24 45.747237 -123.027762 355 18987ft 327kts
29-Apr-18 13:25 45.836374 -123.038995 355 18987ft 327kts
29-Apr-18 13:26 45.926655 -123.050410 355 18987ft 327kts
29-Apr-18 13:27 46.016089 -123.061754 355 18987ft 327kts
29-Apr-18 13:28 46.104829 -123.073044 355 18986ft 327kts
29-Apr-18 13:29 46.188782 -123.083773 355 18987ft 327kts
29-Apr-18 13:30 46.278069 -123.095205 355 18987ft 327kts
29-Apr-18 13:31 46.367898 -123.106760 355 18987ft 327kts
29-Apr-18 13:32 46.455232 -123.104209 16 18537ft 312kts
29-Apr-18 13:33 46.532988 -123.072505 15 17068ft 281kts
29-Apr-18 13:34 46.604866 -123.044611 14 15658ft 267kts
29-Apr-18 13:35 46.674235 -123.017773 14 14256ft 261kts
29-Apr-18 13:36 46.741493 -122.991717 15 12836ft 245kts
29-Apr-18 13:37 46.804234 -122.967195 15 11431ft 234kts
29-Apr-18 13:38 46.864818 -122.943537 14 10035ft 229kts
29-Apr-18 13:39 46.924370 -122.920101 15 8640ft 226kts
29-Apr-18 13:40 46.982653 -122.896630 15 7262ft 224kts
29-Apr-18 13:41 47.040778 -122.870249 19 5863ft 223kts
29-Apr-18 13:42 47.078270 -122.805676 60 4459ft 221kts
29-Apr-18 13:43 47.112869 -122.828927 265 3169ft 216kts
29-Apr-18 13:44 47.083483 -122.882513 180 2841ft 176kts
29-Apr-18 13:45 47.033658 -122.887200 185 1797ft 172kts
29-Apr-18 13:46 46.993404 -122.897383 192 691ft 139kts
29-Apr-18 13:47 46.967043 -122.904918 73 212ft 8kts
29-Apr-18 13:49 46.967079 -122.903254 89 212ft 22kts
29-Apr-18 13:50 46.969840 -122.900485 21 212ft 10kts
29-Apr-18 13:51 46.972631 -122.896712 324 212ft 9kts
29-Apr-18 13:52 46.976330 -122.900439 9 212ft 12kts
29-Apr-18 13:52 46.977074 -122.899628 286 212ft 3kts
29-Apr-18 13:53 46.977053 -122.899689 233 212ft 0kts

Navigation Log

Ident Type
Flight plan parsing failed, navigation log unavailable